createdAt,value
2023-03-29T00:00:09.665Z,13.70
2023-03-29T00:02:39.469Z,11.90
2023-03-29T00:05:07.924Z,13.35
2023-03-29T00:07:36.037Z,17.58
2023-03-29T00:10:04.958Z,19.40
2023-03-29T00:12:32.885Z,14.05
2023-03-29T00:15:00.417Z,21.55
2023-03-29T00:17:28.615Z,16.13
2023-03-29T00:19:56.226Z,11.23
2023-03-29T00:22:23.779Z,14.45
2023-03-29T00:24:54.341Z,13.48
2023-03-29T00:27:22.311Z,13.50
2023-03-29T00:29:49.793Z,10.55
2023-03-29T00:32:17.334Z,12.35
2023-03-29T00:34:45.959Z,11.55
2023-03-29T00:37:14.952Z,10.50
2023-03-29T00:39:42.594Z,12.18
2023-03-29T00:42:19.233Z,11.25
2023-03-29T00:45:06.163Z,9.15
2023-03-29T00:47:57.080Z,9.80
2023-03-29T00:50:29.724Z,9.52
2023-03-29T00:53:15.199Z,9.55
2023-03-29T00:55:52.718Z,8.13
2023-03-29T00:58:38.239Z,9.50
2023-03-29T01:01:16.768Z,10.32
2023-03-29T01:03:54.531Z,19.70
2023-03-29T01:06:25.013Z,15.48
2023-03-29T01:09:00.106Z,13.95
2023-03-29T01:11:34.479Z,15.95
2023-03-29T01:14:05.536Z,12.27
2023-03-29T01:16:38.676Z,13.32
2023-03-29T01:19:10.421Z,16.20
2023-03-29T01:21:44.797Z,13.98
2023-03-29T01:24:27.075Z,12.15
2023-03-29T01:27:09.333Z,12.57
2023-03-29T01:29:51.675Z,11.75
2023-03-29T01:32:47.981Z,11.30
2023-03-29T01:35:22.792Z,15.25
2023-03-29T01:38:03.095Z,13.60
2023-03-29T01:40:33.170Z,13.57
2023-03-29T01:43:03.734Z,13.23
2023-03-29T01:45:46.883Z,10.95
2023-03-29T01:48:24.987Z,12.00
2023-03-29T01:50:55.934Z,13.07
2023-03-29T01:53:27.504Z,14.23
2023-03-29T01:56:04.655Z,13.88
2023-03-29T01:58:35.867Z,12.15
2023-03-29T02:01:09.948Z,18.02
2023-03-29T02:03:42.348Z,14.60
2023-03-29T02:06:17.029Z,14.63
2023-03-29T02:08:46.704Z,17.80
2023-03-29T02:11:14.843Z,17.35
2023-03-29T02:13:44.878Z,14.48
2023-03-29T02:16:14.192Z,13.27
2023-03-29T02:18:46.530Z,17.05
2023-03-29T02:21:22.096Z,18.73
2023-03-29T02:23:51.633Z,15.68
2023-03-29T02:26:19.652Z,12.32
2023-03-29T02:28:47.576Z,11.30
2023-03-29T02:31:28.015Z,15.20
2023-03-29T02:34:04.443Z,14.55
2023-03-29T02:36:41.544Z,13.25
2023-03-29T02:39:14.011Z,16.77
2023-03-29T02:41:44.173Z,27.58
2023-03-29T02:44:17.489Z,19.33
2023-03-29T02:46:48.980Z,13.65
2023-03-29T02:49:16.842Z,17.02
2023-03-29T02:51:47.418Z,11.98
2023-03-29T02:54:22.010Z,11.00
2023-03-29T02:57:01.761Z,10.32
2023-03-29T02:59:30.432Z,12.13
2023-03-29T03:01:58.449Z,13.23
2023-03-29T03:04:28.082Z,13.55
2023-03-29T03:06:55.676Z,13.35
2023-03-29T03:09:23.557Z,11.98
2023-03-29T03:11:52.586Z,12.52
2023-03-29T03:14:22.941Z,15.00
2023-03-29T03:16:51.068Z,17.80
2023-03-29T03:19:19.076Z,14.75
2023-03-29T03:21:47.103Z,14.05
2023-03-29T03:24:15.672Z,15.20
2023-03-29T03:26:46.319Z,10.57
2023-03-29T03:29:15.814Z,15.23
2023-03-29T03:32:04.172Z,11.57
2023-03-29T03:34:50.653Z,11.45
2023-03-29T03:37:18.198Z,11.27
2023-03-29T03:39:46.193Z,11.52
2023-03-29T03:42:13.745Z,11.07
2023-03-29T03:44:44.001Z,9.82
2023-03-29T03:47:37.842Z,9.65
2023-03-29T03:50:19.751Z,10.82
2023-03-29T03:52:47.476Z,10.35
2023-03-29T03:55:16.453Z,12.43
2023-03-29T03:58:05.238Z,10.75
2023-03-29T04:00:33.398Z,10.07
2023-03-29T04:03:20.474Z,13.65
2023-03-29T04:05:48.811Z,11.90
2023-03-29T04:08:18.067Z,14.75
2023-03-29T04:11:07.416Z,12.50
2023-03-29T04:13:37.790Z,11.85
2023-03-29T04:16:29.051Z,17.02
2023-03-29T04:19:02.804Z,11.82
2023-03-29T04:21:30.683Z,11.32
2023-03-29T04:23:58.272Z,17.95
2023-03-29T04:26:25.947Z,14.70
2023-03-29T04:29:02.665Z,13.13
2023-03-29T04:31:40.634Z,12.88
2023-03-29T04:34:26.207Z,16.50
2023-03-29T04:36:55.690Z,18.00
2023-03-29T04:39:33.016Z,11.35
2023-03-29T04:42:04.002Z,13.43
2023-03-29T04:44:33.679Z,15.32
2023-03-29T04:47:02.608Z,17.50
2023-03-29T04:49:59.184Z,12.80
2023-03-29T04:52:39.381Z,13.63
2023-03-29T04:55:08.446Z,12.00
2023-03-29T04:57:48.178Z,10.55
2023-03-29T05:00:26.929Z,12.07
2023-03-29T05:03:11.449Z,13.68
2023-03-29T05:05:43.610Z,15.40
2023-03-29T05:08:12.289Z,13.90
2023-03-29T05:11:00.241Z,15.35
2023-03-29T05:13:29.021Z,13.57
2023-03-29T05:15:57.202Z,16.13
2023-03-29T05:18:25.372Z,14.18
2023-03-29T05:20:55.605Z,11.27
2023-03-29T05:23:23.729Z,11.45
2023-03-29T05:28:39.541Z,17.45
2023-03-29T05:31:08.423Z,17.75
2023-03-29T05:33:37.879Z,12.43
2023-03-29T05:36:09.328Z,15.35
2023-03-29T05:38:42.329Z,14.13
2023-03-29T05:41:10.924Z,10.43
2023-03-29T05:43:56.929Z,10.93
2023-03-29T05:46:26.128Z,14.98
2023-03-29T05:48:56.908Z,18.38
2023-03-29T05:51:37.145Z,20.85
2023-03-29T05:54:05.888Z,15.43
2023-03-29T05:56:33.374Z,14.30
2023-03-29T05:59:02.093Z,15.77
2023-03-29T06:01:30.813Z,14.73
2023-03-29T06:04:06.537Z,12.57
2023-03-29T06:06:53.512Z,17.35
2023-03-29T06:09:21.014Z,11.65
2023-03-29T06:12:01.758Z,16.27
2023-03-29T06:14:36.459Z,18.75
2023-03-29T06:17:19.050Z,18.73
2023-03-29T06:19:47.652Z,29.65
2023-03-29T06:22:16.097Z,29.63
2023-03-29T06:24:43.544Z,22.90
2023-03-29T06:27:21.227Z,18.40
2023-03-29T06:29:48.792Z,20.83
2023-03-29T06:32:16.951Z,17.48
2023-03-29T06:35:11.453Z,18.00
2023-03-29T06:37:49.316Z,35.33
2023-03-29T06:40:33.511Z,24.52
2023-03-29T06:43:01.063Z,30.92
2023-03-29T06:45:36.842Z,30.48
2023-03-29T06:48:09.479Z,23.52
2023-03-29T06:50:37.369Z,28.55
2023-03-29T06:53:10.436Z,30.10
2023-03-29T06:55:39.790Z,27.30
2023-03-29T06:58:24.010Z,28.10
2023-03-29T07:00:51.898Z,41.13
2023-03-29T07:03:28.057Z,33.10
2023-03-29T07:06:10.135Z,29.83
2023-03-29T07:08:46.959Z,25.40
2023-03-29T07:11:41.734Z,31.33
2023-03-29T07:14:19.714Z,22.98
2023-03-29T07:16:48.833Z,32.17
2023-03-29T07:19:36.550Z,31.15
2023-03-29T07:22:11.331Z,32.80
2023-03-29T07:24:52.362Z,29.83
2023-03-29T07:27:20.883Z,28.05
2023-03-29T07:29:50.077Z,39.72
2023-03-29T07:32:18.722Z,27.85
2023-03-29T07:34:48.399Z,20.85
2023-03-29T07:37:28.442Z,20.17
2023-03-29T07:39:57.750Z,18.23
2023-03-29T07:42:48.878Z,24.00
2023-03-29T07:45:26.630Z,16.88
2023-03-29T07:48:02.188Z,20.38
2023-03-29T07:50:46.168Z,20.52
2023-03-29T07:53:14.123Z,17.20
2023-03-29T07:55:47.751Z,18.90
2023-03-29T07:58:38.293Z,16.65
2023-03-29T08:01:07.872Z,16.80
2023-03-29T08:04:08.111Z,20.75
2023-03-29T08:09:52.756Z,23.92
2023-03-29T08:12:25.155Z,24.50
2023-03-29T08:14:53.181Z,23.02
2023-03-29T08:17:28.239Z,15.20
2023-03-29T08:19:55.998Z,16.08
2023-03-29T08:22:24.868Z,22.38
2023-03-29T08:25:07.878Z,16.48
2023-03-29T08:27:40.460Z,25.15
2023-03-29T08:30:11.126Z,16.75
2023-03-29T08:32:39.735Z,17.75
2023-03-29T08:35:09.730Z,16.67
2023-03-29T08:37:57.541Z,17.95
2023-03-29T08:40:28.150Z,14.27
2023-03-29T08:43:26.115Z,13.82
2023-03-29T08:46:40.918Z,13.70
2023-03-29T08:49:22.623Z,16.75
2023-03-29T08:52:02.787Z,17.25
2023-03-29T08:54:41.531Z,14.88
2023-03-29T08:57:32.662Z,16.77
2023-03-29T09:00:17.973Z,13.82
2023-03-29T09:02:46.693Z,13.45
2023-03-29T09:05:28.977Z,13.52
2023-03-29T09:08:17.913Z,11.80
2023-03-29T09:11:10.034Z,8.50
2023-03-29T09:13:50.885Z,12.13
2023-03-29T09:16:29.667Z,12.35
2023-03-29T09:19:23.079Z,10.63
2023-03-29T09:22:17.204Z,11.57
2023-03-29T09:25:16.798Z,10.32
2023-03-29T09:27:58.244Z,11.15
2023-03-29T09:30:58.575Z,12.98
2023-03-29T09:33:37.341Z,13.15
2023-03-29T09:36:36.458Z,12.77
2023-03-29T09:39:05.207Z,14.32
2023-03-29T09:41:42.697Z,14.65
2023-03-29T09:46:56.042Z,14.88
2023-03-29T09:49:36.167Z,11.52
2023-03-29T09:52:11.469Z,13.32
2023-03-29T09:57:28.660Z,14.57
2023-03-29T09:59:57.337Z,13.02
2023-03-29T10:02:30.706Z,14.02
2023-03-29T10:05:04.100Z,13.65
2023-03-29T10:07:46.370Z,17.75
2023-03-29T10:10:22.963Z,12.75
2023-03-29T10:12:54.165Z,12.70
2023-03-29T10:18:03.594Z,14.60
2023-03-29T10:20:31.159Z,16.52
2023-03-29T10:22:59.472Z,10.50
2023-03-29T10:25:30.502Z,15.05
2023-03-29T10:28:08.258Z,13.55
2023-03-29T10:30:38.269Z,13.48
2023-03-29T10:33:14.762Z,18.55
2023-03-29T10:35:42.908Z,19.60
2023-03-29T10:38:14.944Z,12.90
2023-03-29T10:40:47.310Z,13.82
2023-03-29T10:43:17.801Z,16.80
2023-03-29T10:45:49.558Z,16.08
2023-03-29T10:48:18.106Z,17.70
2023-03-29T10:50:54.778Z,17.52
2023-03-29T10:53:30.458Z,23.55
2023-03-29T10:56:32.022Z,17.70
2023-03-29T10:59:17.471Z,18.80
2023-03-29T11:01:59.970Z,26.00
2023-03-29T11:04:30.363Z,21.70
2023-03-29T11:07:25.510Z,16.83
2023-03-29T11:10:11.193Z,23.35
2023-03-29T11:12:58.970Z,18.60
2023-03-29T11:15:47.511Z,15.55
2023-03-29T11:18:43.108Z,18.33
2023-03-29T11:21:11.018Z,17.58
2023-03-29T11:23:50.192Z,21.30
2023-03-29T11:26:29.340Z,18.73
2023-03-29T11:29:17.939Z,15.27
2023-03-29T11:32:00.093Z,18.85
2023-03-29T11:34:49.000Z,19.70
2023-03-29T11:37:28.495Z,16.85
2023-03-29T11:40:05.757Z,21.15
2023-03-29T11:42:38.801Z,22.08
2023-03-29T11:45:12.165Z,23.20
2023-03-29T11:47:46.248Z,19.30
2023-03-29T11:50:23.500Z,18.83
2023-03-29T11:53:02.181Z,23.98
2023-03-29T11:55:33.506Z,15.18
2023-03-29T11:58:22.437Z,15.73
2023-03-29T12:00:58.173Z,13.32
2023-03-29T12:03:41.263Z,22.45
2023-03-29T12:06:26.586Z,16.60
2023-03-29T12:09:02.529Z,20.70
2023-03-29T12:14:15.722Z,14.18
2023-03-29T12:16:43.204Z,14.82
2023-03-29T12:19:56.963Z,14.25
2023-03-29T12:22:24.875Z,21.65
2023-03-29T12:24:54.752Z,19.88
2023-03-29T12:27:28.076Z,16.42
2023-03-29T12:30:09.553Z,13.95
2023-03-29T12:32:54.792Z,23.20
2023-03-29T12:35:55.381Z,12.93
2023-03-29T12:38:43.973Z,12.20
2023-03-29T12:41:24.458Z,11.23
2023-03-29T12:44:24.305Z,16.10
2023-03-29T12:47:03.003Z,12.02
2023-03-29T12:49:34.965Z,12.55
2023-03-29T12:52:08.405Z,10.95
2023-03-29T12:54:36.020Z,8.13
2023-03-29T12:57:21.514Z,5.72
2023-03-29T12:59:49.806Z,10.77
2023-03-29T13:02:18.153Z,13.90
2023-03-29T13:04:52.490Z,7.47
2023-03-29T13:07:22.882Z,9.60
2023-03-29T13:09:51.851Z,15.50
2023-03-29T13:12:28.038Z,9.05
2023-03-29T13:15:02.457Z,16.33
2023-03-29T13:18:14.440Z,13.15
2023-03-29T13:20:44.821Z,18.27
2023-03-29T13:23:51.623Z,14.00
2023-03-29T13:26:27.263Z,16.70
2023-03-29T13:29:09.677Z,15.60
2023-03-29T13:32:19.663Z,16.35
2023-03-29T13:35:16.492Z,14.35
2023-03-29T13:37:59.472Z,16.25
2023-03-29T13:40:29.949Z,16.45
2023-03-29T13:43:22.258Z,14.63
2023-03-29T13:45:58.674Z,19.52
2023-03-29T13:48:30.311Z,21.67
2023-03-29T13:51:08.123Z,12.48
2023-03-29T13:53:41.044Z,14.13
2023-03-29T13:56:15.742Z,14.00
2023-03-29T13:58:48.253Z,14.48
2023-03-29T14:01:36.487Z,13.65
2023-03-29T14:04:07.260Z,17.05
2023-03-29T14:06:37.549Z,20.23
2023-03-29T14:09:08.684Z,19.05
2023-03-29T14:11:36.651Z,19.17
2023-03-29T14:14:07.154Z,23.40
2023-03-29T14:16:40.097Z,14.77
2023-03-29T14:19:37.731Z,21.10
2023-03-29T14:22:13.236Z,22.42
2023-03-29T14:24:48.179Z,21.83
2023-03-29T14:27:16.268Z,27.40
2023-03-29T14:29:51.445Z,23.15
2023-03-29T14:32:27.995Z,26.20
2023-03-29T14:34:55.533Z,20.65
2023-03-29T14:37:28.162Z,26.88
2023-03-29T14:39:57.003Z,15.35
2023-03-29T14:42:27.153Z,21.02
2023-03-29T14:45:07.000Z,18.60
2023-03-29T14:47:35.127Z,19.55
2023-03-29T14:50:03.994Z,17.52
2023-03-29T14:52:32.118Z,20.48
2023-03-29T14:55:02.312Z,16.45
2023-03-29T14:57:36.472Z,24.70
2023-03-29T15:00:26.868Z,19.17
2023-03-29T15:02:58.164Z,19.67
2023-03-29T15:05:44.120Z,16.05
2023-03-29T15:08:19.639Z,18.52
2023-03-29T15:10:47.270Z,36.60
2023-03-29T15:13:24.459Z,21.63
2023-03-29T15:15:59.561Z,30.55
2023-03-29T15:18:39.890Z,28.60
2023-03-29T15:21:08.919Z,35.78
2023-03-29T15:23:39.507Z,23.10
2023-03-29T15:26:10.615Z,19.38
2023-03-29T15:28:47.957Z,30.85
2023-03-29T15:31:18.539Z,23.95
2023-03-29T15:33:46.963Z,29.10
2023-03-29T15:36:15.583Z,18.83
2023-03-29T15:38:45.404Z,27.45
2023-03-29T15:41:16.226Z,22.23
2023-03-29T15:43:43.748Z,21.80
2023-03-29T15:46:13.972Z,19.83
2023-03-29T15:48:41.802Z,26.50
2023-03-29T15:51:12.634Z,32.08
2023-03-29T15:53:40.740Z,30.10
2023-03-29T15:56:11.675Z,35.22
2023-03-29T15:58:39.353Z,38.97
2023-03-29T16:01:19.328Z,37.20
2023-03-29T16:03:48.176Z,34.25
2023-03-29T16:06:17.717Z,28.95
2023-03-29T16:08:46.165Z,29.27
2023-03-29T16:11:13.631Z,29.08
2023-03-29T16:13:41.160Z,32.75
2023-03-29T16:16:11.028Z,38.85
2023-03-29T16:18:38.718Z,32.97
2023-03-29T16:21:06.607Z,36.30
2023-03-29T16:23:34.308Z,39.65
2023-03-29T16:26:02.078Z,34.40
2023-03-29T16:28:29.752Z,31.50
2023-03-29T16:30:57.137Z,34.95
2023-03-29T16:33:24.687Z,26.10
2023-03-29T16:35:52.268Z,28.27
2023-03-29T16:38:19.916Z,26.35
2023-03-29T16:40:47.571Z,34.28
2023-03-29T16:43:16.190Z,27.73
2023-03-29T16:45:43.788Z,37.75
2023-03-29T16:48:17.337Z,39.22
2023-03-29T16:50:48.703Z,36.05
2023-03-29T16:53:18.757Z,30.58
2023-03-29T16:55:47.494Z,35.03
2023-03-29T16:58:15.560Z,29.88
2023-03-29T17:00:46.379Z,35.33
2023-03-29T17:03:16.957Z,26.52
2023-03-29T17:05:52.923Z,32.15
2023-03-29T17:08:21.188Z,24.75
2023-03-29T17:10:55.681Z,20.67
2023-03-29T17:13:24.109Z,35.42
2023-03-29T17:15:53.808Z,30.02
2023-03-29T17:18:22.604Z,23.42
2023-03-29T17:20:51.900Z,27.15
2023-03-29T17:23:19.578Z,33.58
2023-03-29T17:25:47.226Z,27.75
2023-03-29T17:28:14.836Z,29.27
2023-03-29T17:30:44.959Z,29.65
2023-03-29T17:33:13.570Z,36.25
2023-03-29T17:35:44.888Z,30.90
2023-03-29T17:38:12.440Z,26.98
2023-03-29T17:40:40.061Z,32.30
2023-03-29T17:43:07.456Z,39.83
2023-03-29T17:45:35.534Z,37.08
2023-03-29T17:48:06.079Z,33.53
2023-03-29T17:50:34.405Z,33.47
2023-03-29T17:53:01.911Z,31.10
2023-03-29T17:55:29.452Z,31.63
2023-03-29T17:57:58.395Z,26.02
2023-03-29T18:00:26.008Z,37.67
2023-03-29T18:02:53.540Z,33.08
2023-03-29T18:05:21.044Z,29.00
2023-03-29T18:07:48.679Z,34.88
2023-03-29T18:10:16.276Z,39.58
2023-03-29T18:12:43.785Z,30.17
2023-03-29T18:15:11.685Z,28.42
2023-03-29T18:17:39.241Z,26.77
2023-03-29T18:20:11.915Z,34.85
2023-03-29T18:22:41.497Z,27.50
2023-03-29T18:25:10.134Z,26.52
2023-03-29T18:27:38.976Z,24.60
2023-03-29T18:30:08.747Z,27.33
2023-03-29T18:32:36.704Z,34.22
2023-03-29T18:35:05.018Z,29.00
2023-03-29T18:37:32.735Z,23.38
2023-03-29T18:40:00.367Z,21.77
2023-03-29T18:42:27.912Z,22.80
2023-03-29T18:44:55.374Z,22.90
2023-03-29T18:47:22.781Z,16.98
2023-03-29T18:49:50.198Z,14.43
2023-03-29T18:52:17.907Z,15.52
2023-03-29T18:54:45.437Z,16.45
2023-03-29T18:57:12.925Z,14.52
2023-03-29T18:59:40.824Z,13.43
2023-03-29T19:02:10.223Z,14.43
2023-03-29T19:04:37.705Z,23.48
2023-03-29T19:07:05.195Z,22.85
2023-03-29T19:09:32.830Z,27.92
2023-03-29T19:12:00.291Z,40.05
2023-03-29T19:14:28.036Z,26.77
2023-03-29T19:16:55.653Z,25.83
2023-03-29T19:19:26.330Z,27.75
2023-03-29T19:21:54.000Z,23.83
2023-03-29T19:24:22.045Z,33.50
2023-03-29T19:26:51.802Z,45.42
2023-03-29T19:29:19.338Z,37.60
2023-03-29T19:31:46.816Z,29.73
2023-03-29T19:34:14.290Z,39.03
2023-03-29T19:36:41.909Z,50.50
2023-03-29T19:39:09.481Z,42.88
2023-03-29T19:41:37.872Z,38.55
2023-03-29T19:44:06.508Z,40.90
2023-03-29T19:46:34.042Z,35.97
2023-03-29T19:49:03.703Z,34.78
2023-03-29T19:51:32.633Z,39.85
2023-03-29T19:54:00.644Z,46.78
2023-03-29T19:56:28.221Z,41.03
2023-03-29T19:58:55.702Z,45.03
2023-03-29T20:01:27.091Z,40.65
2023-03-29T20:03:54.700Z,37.35
2023-03-29T20:06:22.342Z,44.33
2023-03-29T20:08:49.962Z,42.00
2023-03-29T20:11:19.867Z,37.47
2023-03-29T20:13:47.322Z,39.60
2023-03-29T20:16:16.528Z,41.00
2023-03-29T20:18:45.212Z,49.70
2023-03-29T20:21:16.696Z,32.28
2023-03-29T20:23:44.830Z,37.90
2023-03-29T20:26:12.388Z,39.72
2023-03-29T20:28:39.863Z,27.25
2023-03-29T20:31:10.681Z,36.33
2023-03-29T20:33:39.114Z,27.85
2023-03-29T20:36:08.497Z,29.27
2023-03-29T20:38:36.711Z,35.40
2023-03-29T20:41:05.446Z,36.78
2023-03-29T20:43:37.533Z,33.22
2023-03-29T20:46:14.374Z,34.85
2023-03-29T20:48:54.343Z,29.92
2023-03-29T20:51:28.125Z,29.33
2023-03-29T20:54:02.438Z,28.42
2023-03-29T20:56:31.465Z,28.02
2023-03-29T20:58:59.491Z,20.27
2023-03-29T21:01:29.628Z,23.45
2023-03-29T21:03:57.203Z,22.40
2023-03-29T21:06:25.022Z,26.23
2023-03-29T21:08:53.354Z,35.45
2023-03-29T21:11:21.066Z,29.27
2023-03-29T21:13:48.666Z,32.92
2023-03-29T21:16:16.218Z,22.20
2023-03-29T21:18:43.777Z,34.63
2023-03-29T21:21:12.329Z,25.90
2023-03-29T21:23:40.691Z,26.45
2023-03-29T21:26:09.343Z,23.95
2023-03-29T21:28:37.734Z,16.45
2023-03-29T21:31:06.203Z,21.00
2023-03-29T21:33:34.703Z,19.17
2023-03-29T21:36:02.573Z,19.08
2023-03-29T21:38:30.153Z,20.30
2023-03-29T21:40:58.248Z,21.50
2023-03-29T21:43:25.873Z,17.80
2023-03-29T21:45:53.328Z,15.32
2023-03-29T21:48:20.897Z,22.65
2023-03-29T21:50:51.177Z,18.27
2023-03-29T21:53:18.829Z,17.40
2023-03-29T21:55:49.299Z,15.93
2023-03-29T21:58:16.907Z,14.70
2023-03-29T22:00:45.570Z,12.40
2023-03-29T22:03:14.049Z,10.55
2023-03-29T22:05:42.010Z,12.00
2023-03-29T22:08:12.530Z,9.05
2023-03-29T22:10:43.049Z,10.57
2023-03-29T22:13:10.500Z,12.55
2023-03-29T22:15:38.997Z,7.30
2023-03-29T22:18:06.596Z,10.20
2023-03-29T22:20:34.316Z,9.52
2023-03-29T22:23:01.850Z,12.20
2023-03-29T22:25:29.304Z,9.82
2023-03-29T22:27:56.823Z,9.57
2023-03-29T22:30:24.321Z,11.48
2023-03-29T22:32:51.886Z,14.07
2023-03-29T22:35:19.432Z,15.93
2023-03-29T22:37:47.011Z,18.30
2023-03-29T22:40:14.627Z,15.45
2023-03-29T22:42:42.106Z,22.05
2023-03-29T22:45:10.172Z,19.95
2023-03-29T22:47:37.754Z,22.02
2023-03-29T22:50:07.463Z,19.30
2023-03-29T22:52:35.067Z,21.58
2023-03-29T22:55:02.624Z,28.67
2023-03-29T22:57:30.265Z,21.27
2023-03-29T22:59:57.735Z,30.88
2023-03-29T23:02:25.496Z,25.10
2023-03-29T23:04:52.929Z,30.83
2023-03-29T23:07:20.818Z,32.20
2023-03-29T23:09:48.190Z,35.20
2023-03-29T23:12:15.949Z,23.77
2023-03-29T23:14:45.219Z,30.17
2023-03-29T23:17:13.515Z,22.52
2023-03-29T23:19:41.658Z,27.05
2023-03-29T23:22:09.168Z,24.80
2023-03-29T23:24:36.673Z,22.40
2023-03-29T23:27:05.564Z,27.33
2023-03-29T23:29:34.596Z,18.25
2023-03-29T23:32:02.029Z,17.15
2023-03-29T23:34:29.511Z,17.08
2023-03-29T23:36:57.070Z,20.88
2023-03-29T23:39:25.208Z,14.02
2023-03-29T23:41:52.795Z,17.55
2023-03-29T23:44:20.228Z,18.92
2023-03-29T23:46:47.858Z,24.90
2023-03-29T23:49:16.756Z,14.70
2023-03-29T23:51:45.070Z,15.20
2023-03-29T23:54:12.927Z,18.70
2023-03-29T23:56:40.493Z,13.60
2023-03-29T23:59:07.955Z,11.50
